sensor_id;sensor_type;location;lat;lon;timestamp;pressure;altitude;pressure_sealevel;temperature;humidity
14089;BME280;7120;52.890;6.040;2022-08-25T00:01:20;101783.94;;;21.62;75.57
14089;BME280;7120;52.890;6.040;2022-08-25T00:03:46;101796.81;;;21.67;75.09
14089;BME280;7120;52.890;6.040;2022-08-25T00:06:12;101792.19;;;21.59;75.20
14089;BME280;7120;52.890;6.040;2022-08-25T00:08:39;101784.25;;;21.45;75.97
14089;BME280;7120;52.890;6.040;2022-08-25T00:11:13;101777.25;;;21.51;75.48
14089;BME280;7120;52.890;6.040;2022-08-25T00:13:42;101775.03;;;21.57;75.20
14089;BME280;7120;52.890;6.040;2022-08-25T00:16:09;101783.06;;;21.46;74.79
14089;BME280;7120;52.890;6.040;2022-08-25T00:18:36;101787.22;;;21.52;74.89
14089;BME280;7120;52.890;6.040;2022-08-25T00:21:03;101782.84;;;21.51;74.51
14089;BME280;7120;52.890;6.040;2022-08-25T00:23:29;101786.19;;;21.57;74.44
14089;BME280;7120;52.890;6.040;2022-08-25T00:25:54;101788.59;;;21.58;73.92
14089;BME280;7120;52.890;6.040;2022-08-25T00:28:20;101772.97;;;21.54;73.85
14089;BME280;7120;52.890;6.040;2022-08-25T00:30:45;101781.91;;;21.47;73.88
14089;BME280;7120;52.890;6.040;2022-08-25T00:33:11;101794.31;;;21.50;73.64
14089;BME280;7120;52.890;6.040;2022-08-25T00:35:37;101784.25;;;21.45;74.52
14089;BME280;7120;52.890;6.040;2022-08-25T00:38:03;101789.91;;;21.49;74.09
14089;BME280;7120;52.890;6.040;2022-08-25T00:40:28;101794.81;;;21.39;74.29
14089;BME280;7120;52.890;6.040;2022-08-25T00:42:54;101781.13;;;21.34;74.36
14089;BME280;7120;52.890;6.040;2022-08-25T00:45:20;101795.63;;;21.40;74.42
14089;BME280;7120;52.890;6.040;2022-08-25T00:47:47;101779.44;;;21.30;74.36
14089;BME280;7120;52.890;6.040;2022-08-25T00:50:13;101792.75;;;21.24;75.31
14089;BME280;7120;52.890;6.040;2022-08-25T00:52:44;101795.41;;;21.21;75.71
14089;BME280;7120;52.890;6.040;2022-08-25T00:55:46;101795.75;;;21.31;74.77
14089;BME280;7120;52.890;6.040;2022-08-25T00:58:20;101788.22;;;21.20;74.99
14089;BME280;7120;52.890;6.040;2022-08-25T01:00:52;101794.94;;;21.19;75.36
14089;BME280;7120;52.890;6.040;2022-08-25T01:03:20;101786.25;;;21.20;74.83
14089;BME280;7120;52.890;6.040;2022-08-25T01:05:47;101789.97;;;21.12;76.00
14089;BME280;7120;52.890;6.040;2022-08-25T01:08:14;101787.56;;;20.98;76.57
14089;BME280;7120;52.890;6.040;2022-08-25T01:10:43;101785.94;;;20.97;75.92
14089;BME280;7120;52.890;6.040;2022-08-25T01:13:14;101781.63;;;21.00;74.84
14089;BME280;7120;52.890;6.040;2022-08-25T01:15:43;101768.59;;;20.76;76.11
14089;BME280;7120;52.890;6.040;2022-08-25T01:18:08;101736.41;;;20.63;74.59
14089;BME280;7120;52.890;6.040;2022-08-25T01:20:33;101767.88;;;20.79;75.56
14089;BME280;7120;52.890;6.040;2022-08-25T01:23:00;101774.72;;;20.69;74.97
14089;BME280;7120;52.890;6.040;2022-08-25T01:27:58;101776.38;;;20.58;75.91
14089;BME280;7120;52.890;6.040;2022-08-25T01:30:24;101773.56;;;20.46;76.67
14089;BME280;7120;52.890;6.040;2022-08-25T01:32:50;101777.63;;;20.48;76.29
14089;BME280;7120;52.890;6.040;2022-08-25T01:35:16;101769.47;;;20.43;75.32
14089;BME280;7120;52.890;6.040;2022-08-25T01:37:41;101766.59;;;20.40;75.15
14089;BME280;7120;52.890;6.040;2022-08-25T01:40:07;101762.75;;;20.20;76.75
14089;BME280;7120;52.890;6.040;2022-08-25T01:42:53;101778.28;;;20.33;74.55
14089;BME280;7120;52.890;6.040;2022-08-25T01:45:21;101765.31;;;20.37;74.42
14089;BME280;7120;52.890;6.040;2022-08-25T01:47:47;101769.19;;;20.45;74.09
14089;BME280;7120;52.890;6.040;2022-08-25T01:50:12;101730.56;;;20.19;74.07
14089;BME280;7120;52.890;6.040;2022-08-25T01:52:50;101767.53;;;20.44;72.18
14089;BME280;7120;52.890;6.040;2022-08-25T01:55:18;101758.16;;;20.48;72.20
14089;BME280;7120;52.890;6.040;2022-08-25T01:57:43;101767.44;;;20.52;70.90
14089;BME280;7120;52.890;6.040;2022-08-25T02:00:09;101763.50;;;20.53;71.11
14089;BME280;7120;52.890;6.040;2022-08-25T02:02:37;101759.63;;;20.34;73.33
14089;BME280;7120;52.890;6.040;2022-08-25T02:05:04;101758.94;;;20.37;71.60
14089;BME280;7120;52.890;6.040;2022-08-25T02:07:30;101755.59;;;20.31;70.85
14089;BME280;7120;52.890;6.040;2022-08-25T02:09:55;101749.47;;;20.38;69.74
14089;BME280;7120;52.890;6.040;2022-08-25T02:12:20;101755.13;;;20.41;71.14
14089;BME280;7120;52.890;6.040;2022-08-25T02:14:46;101748.88;;;20.32;70.21
14089;BME280;7120;52.890;6.040;2022-08-25T02:17:12;101752.00;;;20.30;69.98
14089;BME280;7120;52.890;6.040;2022-08-25T02:19:37;101751.31;;;20.34;70.38
14089;BME280;7120;52.890;6.040;2022-08-25T02:22:03;101746.22;;;20.23;68.91
14089;BME280;7120;52.890;6.040;2022-08-25T02:24:28;101750.94;;;20.35;69.51
14089;BME280;7120;52.890;6.040;2022-08-25T02:26:54;101741.53;;;20.15;70.71
14089;BME280;7120;52.890;6.040;2022-08-25T02:29:19;101734.50;;;20.06;69.38
14089;BME280;7120;52.890;6.040;2022-08-25T02:31:45;101730.44;;;20.03;69.36
14089;BME280;7120;52.890;6.040;2022-08-25T02:34:11;101753.03;;;20.26;68.42
14089;BME280;7120;52.890;6.040;2022-08-25T02:36:37;101750.59;;;20.12;69.12
14089;BME280;7120;52.890;6.040;2022-08-25T02:39:05;101754.06;;;20.21;68.42
14089;BME280;7120;52.890;6.040;2022-08-25T02:41:31;101746.88;;;20.20;67.12
14089;BME280;7120;52.890;6.040;2022-08-25T02:43:59;101758.81;;;20.33;66.93
14089;BME280;7120;52.890;6.040;2022-08-25T02:46:25;101749.31;;;20.22;68.24
14089;BME280;7120;52.890;6.040;2022-08-25T02:48:51;101755.91;;;20.29;66.25
14089;BME280;7120;52.890;6.040;2022-08-25T02:51:19;101746.78;;;20.17;68.23
14089;BME280;7120;52.890;6.040;2022-08-25T02:53:44;101754.66;;;20.27;66.50
14089;BME280;7120;52.890;6.040;2022-08-25T02:56:11;101738.22;;;20.10;68.34
14089;BME280;7120;52.890;6.040;2022-08-25T02:58:38;101759.84;;;20.28;65.75
14089;BME280;7120;52.890;6.040;2022-08-25T03:01:05;101754.53;;;20.23;65.54
14089;BME280;7120;52.890;6.040;2022-08-25T03:03:31;101756.16;;;20.24;67.12
14089;BME280;7120;52.890;6.040;2022-08-25T03:05:57;101747.47;;;20.26;66.85
14089;BME280;7120;52.890;6.040;2022-08-25T03:08:23;101744.59;;;20.35;64.96
14089;BME280;7120;52.890;6.040;2022-08-25T03:10:50;101749.56;;;20.41;64.15
14089;BME280;7120;52.890;6.040;2022-08-25T03:13:16;101741.84;;;20.47;63.81
14089;BME280;7120;52.890;6.040;2022-08-25T03:15:42;101742.66;;;20.47;64.51
14089;BME280;7120;52.890;6.040;2022-08-25T03:18:09;101726.53;;;20.41;63.62
14089;BME280;7120;52.890;6.040;2022-08-25T03:20:36;101732.13;;;20.53;63.75
14089;BME280;7120;52.890;6.040;2022-08-25T03:23:02;101736.88;;;20.52;63.55
14089;BME280;7120;52.890;6.040;2022-08-25T03:25:28;101738.84;;;20.52;63.31
14089;BME280;7120;52.890;6.040;2022-08-25T03:28:12;101733.84;;;20.57;62.93
14089;BME280;7120;52.890;6.040;2022-08-25T03:30:39;101731.19;;;20.49;63.40
14089;BME280;7120;52.890;6.040;2022-08-25T03:33:04;101726.22;;;20.54;63.40
14089;BME280;7120;52.890;6.040;2022-08-25T03:35:29;101716.13;;;20.62;62.33
14089;BME280;7120;52.890;6.040;2022-08-25T03:37:56;101721.09;;;20.69;61.71
14089;BME280;7120;52.890;6.040;2022-08-25T03:40:21;101725.63;;;20.73;62.35
14089;BME280;7120;52.890;6.040;2022-08-25T03:42:47;101718.09;;;20.74;61.21
14089;BME280;7120;52.890;6.040;2022-08-25T03:45:14;101727.47;;;20.81;61.08
14089;BME280;7120;52.890;6.040;2022-08-25T03:47:41;101724.34;;;20.71;62.34
14089;BME280;7120;52.890;6.040;2022-08-25T03:50:10;101724.91;;;20.76;61.88
14089;BME280;7120;52.890;6.040;2022-08-25T03:52:37;101730.25;;;20.69;63.75
14089;BME280;7120;52.890;6.040;2022-08-25T03:55:04;101719.94;;;20.70;61.42
14089;BME280;7120;52.890;6.040;2022-08-25T03:57:32;101716.47;;;20.73;61.89
14089;BME280;7120;52.890;6.040;2022-08-25T03:59:57;101713.47;;;20.66;61.54
14089;BME280;7120;52.890;6.040;2022-08-25T04:02:23;101696.22;;;20.60;61.24
14089;BME280;7120;52.890;6.040;2022-08-25T04:04:48;101708.16;;;20.61;60.89
14089;BME280;7120;52.890;6.040;2022-08-25T04:07:14;101706.16;;;20.61;60.91
14089;BME280;7120;52.890;6.040;2022-08-25T04:09:40;101710.00;;;20.56;62.98
14089;BME280;7120;52.890;6.040;2022-08-25T04:12:05;101694.13;;;20.33;62.30
14089;BME280;7120;52.890;6.040;2022-08-25T04:14:31;101718.44;;;20.48;61.82
14089;BME280;7120;52.890;6.040;2022-08-25T04:16:57;101707.25;;;20.44;61.12
14089;BME280;7120;52.890;6.040;2022-08-25T04:19:22;101699.19;;;20.43;61.70
14089;BME280;7120;52.890;6.040;2022-08-25T04:21:48;101711.88;;;20.52;61.70
14089;BME280;7120;52.890;6.040;2022-08-25T04:24:14;101707.53;;;20.43;61.92
14089;BME280;7120;52.890;6.040;2022-08-25T04:26:50;101708.00;;;20.33;62.05
14089;BME280;7120;52.890;6.040;2022-08-25T04:29:19;101692.63;;;20.23;62.14
14089;BME280;7120;52.890;6.040;2022-08-25T04:31:46;101699.44;;;20.38;60.76
14089;BME280;7120;52.890;6.040;2022-08-25T04:34:14;101678.81;;;20.14;62.06
14089;BME280;7120;52.890;6.040;2022-08-25T04:36:40;101692.38;;;20.28;60.73
14089;BME280;7120;52.890;6.040;2022-08-25T04:39:06;101678.84;;;20.26;60.81
14089;BME280;7120;52.890;6.040;2022-08-25T04:41:31;101667.63;;;20.23;61.71
14089;BME280;7120;52.890;6.040;2022-08-25T04:43:58;101693.41;;;20.36;61.41
14089;BME280;7120;52.890;6.040;2022-08-25T04:46:27;101676.19;;;20.18;60.88
14089;BME280;7120;52.890;6.040;2022-08-25T04:48:54;101683.81;;;20.33;60.46
14089;BME280;7120;52.890;6.040;2022-08-25T04:51:22;101692.81;;;20.42;60.41
14089;BME280;7120;52.890;6.040;2022-08-25T04:53:48;101696.56;;;20.46;60.61
14089;BME280;7120;52.890;6.040;2022-08-25T04:56:16;101694.44;;;20.43;61.64
14089;BME280;7120;52.890;6.040;2022-08-25T04:58:42;101695.88;;;20.49;61.60
14089;BME280;7120;52.890;6.040;2022-08-25T05:01:13;101689.59;;;20.28;61.93
14089;BME280;7120;52.890;6.040;2022-08-25T05:03:40;101698.38;;;20.42;61.19
14089;BME280;7120;52.890;6.040;2022-08-25T05:06:06;101675.25;;;20.38;62.16
14089;BME280;7120;52.890;6.040;2022-08-25T05:08:32;101690.66;;;20.48;60.09
14089;BME280;7120;52.890;6.040;2022-08-25T05:10:57;101696.94;;;20.45;60.80
14089;BME280;7120;52.890;6.040;2022-08-25T05:13:24;101685.56;;;20.38;60.81
14089;BME280;7120;52.890;6.040;2022-08-25T05:15:58;101691.81;;;20.59;60.01
14089;BME280;7120;52.890;6.040;2022-08-25T05:18:25;101700.75;;;20.52;59.98
14089;BME280;7120;52.890;6.040;2022-08-25T05:20:52;101700.53;;;20.45;60.63
14089;BME280;7120;52.890;6.040;2022-08-25T05:23:19;101704.41;;;20.69;59.83
14089;BME280;7120;52.890;6.040;2022-08-25T05:25:45;101696.66;;;20.62;60.59
14089;BME280;7120;52.890;6.040;2022-08-25T05:28:11;101703.97;;;20.67;59.61
14089;BME280;7120;52.890;6.040;2022-08-25T05:30:39;101705.59;;;20.68;59.76
14089;BME280;7120;52.890;6.040;2022-08-25T05:33:05;101702.56;;;20.73;60.18
14089;BME280;7120;52.890;6.040;2022-08-25T05:35:30;101705.09;;;20.78;60.38
14089;BME280;7120;52.890;6.040;2022-08-25T05:37:56;101701.88;;;20.76;60.74
14089;BME280;7120;52.890;6.040;2022-08-25T05:40:22;101702.44;;;20.81;60.93
14089;BME280;7120;52.890;6.040;2022-08-25T05:42:49;101693.06;;;20.86;60.18
14089;BME280;7120;52.890;6.040;2022-08-25T05:45:14;101685.75;;;20.81;60.29
14089;BME280;7120;52.890;6.040;2022-08-25T05:47:39;101683.22;;;20.76;60.81
14089;BME280;7120;52.890;6.040;2022-08-25T05:50:05;101702.41;;;20.94;60.31
14089;BME280;7120;52.890;6.040;2022-08-25T05:52:31;101701.81;;;21.00;61.37
14089;BME280;7120;52.890;6.040;2022-08-25T05:54:57;101700.19;;;20.99;60.20
14089;BME280;7120;52.890;6.040;2022-08-25T05:57:22;101707.38;;;21.00;59.61
14089;BME280;7120;52.890;6.040;2022-08-25T05:59:48;101698.38;;;21.19;59.47
14089;BME280;7120;52.890;6.040;2022-08-25T06:02:13;101702.09;;;21.23;60.52
14089;BME280;7120;52.890;6.040;2022-08-25T06:04:57;101697.78;;;21.26;60.00
14089;BME280;7120;52.890;6.040;2022-08-25T06:07:23;101714.09;;;21.39;59.50
14089;BME280;7120;52.890;6.040;2022-08-25T06:09:48;101706.59;;;21.28;59.31
14089;BME280;7120;52.890;6.040;2022-08-25T06:12:15;101709.47;;;21.44;60.13
14089;BME280;7120;52.890;6.040;2022-08-25T06:14:41;101705.38;;;21.41;60.07
14089;BME280;7120;52.890;6.040;2022-08-25T06:17:06;101692.53;;;21.64;58.47
14089;BME280;7120;52.890;6.040;2022-08-25T06:19:32;101691.38;;;21.65;58.91
14089;BME280;7120;52.890;6.040;2022-08-25T06:21:57;101696.47;;;21.63;58.86
14089;BME280;7120;52.890;6.040;2022-08-25T06:24:25;101698.53;;;21.66;59.54
14089;BME280;7120;52.890;6.040;2022-08-25T06:26:51;101698.56;;;21.82;58.78
14089;BME280;7120;52.890;6.040;2022-08-25T06:29:17;101697.25;;;21.92;57.88
14089;BME280;7120;52.890;6.040;2022-08-25T06:31:43;101699.91;;;22.04;57.98
14089;BME280;7120;52.890;6.040;2022-08-25T06:34:09;101707.31;;;22.12;58.90
14089;BME280;7120;52.890;6.040;2022-08-25T06:36:35;101699.84;;;22.01;57.69
14089;BME280;7120;52.890;6.040;2022-08-25T06:39:00;101704.63;;;22.16;57.86
14089;BME280;7120;52.890;6.040;2022-08-25T06:41:26;101704.06;;;22.26;57.23
14089;BME280;7120;52.890;6.040;2022-08-25T06:43:51;101705.06;;;22.34;57.05
14089;BME280;7120;52.890;6.040;2022-08-25T06:46:19;101715.50;;;22.37;57.05
14089;BME280;7120;52.890;6.040;2022-08-25T06:48:45;101710.09;;;22.44;57.69
14089;BME280;7120;52.890;6.040;2022-08-25T06:51:13;101713.50;;;22.53;56.46
14089;BME280;7120;52.890;6.040;2022-08-25T06:53:39;101681.47;;;22.47;56.58
14089;BME280;7120;52.890;6.040;2022-08-25T06:56:05;101719.81;;;22.85;57.88
14089;BME280;7120;52.890;6.040;2022-08-25T06:58:31;101718.59;;;23.02;55.96
14089;BME280;7120;52.890;6.040;2022-08-25T07:01:13;101715.66;;;22.95;57.64
14089;BME280;7120;52.890;6.040;2022-08-25T07:03:39;101711.50;;;23.24;55.98
14089;BME280;7120;52.890;6.040;2022-08-25T07:06:05;101689.81;;;23.17;55.66
14089;BME280;7120;52.890;6.040;2022-08-25T07:08:31;101700.31;;;23.43;54.87
14089;BME280;7120;52.890;6.040;2022-08-25T07:10:57;101703.91;;;23.44;55.08
14089;BME280;7120;52.890;6.040;2022-08-25T07:13:23;101707.78;;;23.58;55.75
14089;BME280;7120;52.890;6.040;2022-08-25T07:15:53;101706.09;;;23.73;54.38
14089;BME280;7120;52.890;6.040;2022-08-25T07:18:19;101693.44;;;23.79;54.05
14089;BME280;7120;52.890;6.040;2022-08-25T07:20:44;101697.38;;;23.98;53.81
14089;BME280;7120;52.890;6.040;2022-08-25T07:23:09;101673.63;;;23.88;53.35
14089;BME280;7120;52.890;6.040;2022-08-25T07:25:35;101698.97;;;24.22;53.79
14089;BME280;7120;52.890;6.040;2022-08-25T07:28:01;101709.28;;;24.41;53.98
14089;BME280;7120;52.890;6.040;2022-08-25T07:30:27;101706.63;;;24.51;53.34
14089;BME280;7120;52.890;6.040;2022-08-25T07:32:52;101713.69;;;24.68;53.66
14089;BME280;7120;52.890;6.040;2022-08-25T07:35:18;101700.31;;;24.54;52.44
14089;BME280;7120;52.890;6.040;2022-08-25T07:37:49;101715.78;;;24.75;54.12
14089;BME280;7120;52.890;6.040;2022-08-25T07:40:18;101722.28;;;24.82;51.70
14089;BME280;7120;52.890;6.040;2022-08-25T07:42:47;101728.94;;;25.01;52.67
14089;BME280;7120;52.890;6.040;2022-08-25T07:45:13;101733.81;;;25.04;50.40
14089;BME280;7120;52.890;6.040;2022-08-25T07:47:39;101729.91;;;25.12;51.35
14089;BME280;7120;52.890;6.040;2022-08-25T07:50:09;101711.31;;;25.27;51.08
14089;BME280;7120;52.890;6.040;2022-08-25T07:52:36;101724.03;;;25.54;50.33
14089;BME280;7120;52.890;6.040;2022-08-25T07:55:02;101724.69;;;25.44;50.55
14089;BME280;7120;52.890;6.040;2022-08-25T07:57:28;101725.13;;;25.80;50.20
14089;BME280;7120;52.890;6.040;2022-08-25T07:59:54;101713.59;;;25.88;48.34
14089;BME280;7120;52.890;6.040;2022-08-25T08:02:19;101714.47;;;25.96;49.50
14089;BME280;7120;52.890;6.040;2022-08-25T08:04:49;101709.97;;;26.36;49.01
14089;BME280;7120;52.890;6.040;2022-08-25T08:07:18;101719.81;;;26.60;47.59
14089;BME280;7120;52.890;6.040;2022-08-25T08:09:44;101707.03;;;26.69;46.78
14089;BME280;7120;52.890;6.040;2022-08-25T08:12:10;101710.84;;;27.02;49.61
14089;BME280;7120;52.890;6.040;2022-08-25T08:14:36;101706.59;;;27.36;46.22
14089;BME280;7120;52.890;6.040;2022-08-25T08:17:06;101712.28;;;27.58;46.38
14089;BME280;7120;52.890;6.040;2022-08-25T08:19:32;101713.16;;;27.94;44.97
14089;BME280;7120;52.890;6.040;2022-08-25T08:21:58;101714.38;;;28.22;43.36
14089;BME280;7120;52.890;6.040;2022-08-25T08:24:24;101716.28;;;28.96;45.08
14089;BME280;7120;52.890;6.040;2022-08-25T08:26:49;101721.13;;;28.95;41.92
14089;BME280;7120;52.890;6.040;2022-08-25T08:29:15;101711.75;;;29.27;43.31
14089;BME280;7120;52.890;6.040;2022-08-25T08:31:40;101710.38;;;29.64;41.40
14089;BME280;7120;52.890;6.040;2022-08-25T08:34:06;101717.09;;;29.80;40.83
14089;BME280;7120;52.890;6.040;2022-08-25T08:36:32;101704.19;;;29.83;40.66
14089;BME280;7120;52.890;6.040;2022-08-25T08:38:57;101718.13;;;30.12;40.13
14089;BME280;7120;52.890;6.040;2022-08-25T08:47:05;101706.06;;;30.49;37.54
14089;BME280;7120;52.890;6.040;2022-08-25T08:52:23;101692.31;;;30.51;37.47
14089;BME280;7120;52.890;6.040;2022-08-25T08:55:00;101696.19;;;30.71;38.20
14089;BME280;7120;52.890;6.040;2022-08-25T08:57:28;101683.63;;;30.76;36.47
14089;BME280;7120;52.890;6.040;2022-08-25T08:59:59;101685.31;;;31.04;37.44
14089;BME280;7120;52.890;6.040;2022-08-25T09:02:38;101677.88;;;31.17;36.59
14089;BME280;7120;52.890;6.040;2022-08-25T09:05:10;101678.59;;;31.21;36.51
14089;BME280;7120;52.890;6.040;2022-08-25T09:07:43;101668.31;;;31.38;35.12
14089;BME280;7120;52.890;6.040;2022-08-25T09:10:09;101667.25;;;31.82;34.32
14089;BME280;7120;52.890;6.040;2022-08-25T09:12:46;101669.16;;;31.62;32.82
14089;BME280;7120;52.890;6.040;2022-08-25T09:21:42;101643.97;;;31.71;32.00
14089;BME280;7120;52.890;6.040;2022-08-25T09:32:33;101649.56;;;33.60;30.66
14089;BME280;7120;52.890;6.040;2022-08-25T09:35:00;101640.91;;;32.95;30.12
14089;BME280;7120;52.890;6.040;2022-08-25T09:37:26;101631.44;;;33.02;30.41
14089;BME280;7120;52.890;6.040;2022-08-25T09:39:52;101632.88;;;33.10;30.15
14089;BME280;7120;52.890;6.040;2022-08-25T09:42:18;101628.31;;;32.96;29.09
14089;BME280;7120;52.890;6.040;2022-08-25T09:44:46;101624.63;;;33.36;28.74
14089;BME280;7120;52.890;6.040;2022-08-25T09:49:40;101626.38;;;33.29;28.74
14089;BME280;7120;52.890;6.040;2022-08-25T09:52:22;101625.19;;;33.79;28.02
14089;BME280;7120;52.890;6.040;2022-08-25T09:54:49;101626.00;;;33.64;27.94
14089;BME280;7120;52.890;6.040;2022-08-25T09:57:32;101629.09;;;33.17;28.00
14089;BME280;7120;52.890;6.040;2022-08-25T10:00:22;101630.50;;;33.45;28.37
14089;BME280;7120;52.890;6.040;2022-08-25T10:03:07;101622.09;;;33.57;27.22
14089;BME280;7120;52.890;6.040;2022-08-25T10:05:46;101614.63;;;33.80;26.92
14089;BME280;7120;52.890;6.040;2022-08-25T10:08:29;101607.34;;;33.46;26.53
14089;BME280;7120;52.890;6.040;2022-08-25T10:10:58;101612.09;;;33.33;26.75
14089;BME280;7120;52.890;6.040;2022-08-25T10:13:48;101607.81;;;33.77;27.89
14089;BME280;7120;52.890;6.040;2022-08-25T10:16:27;101614.13;;;34.30;27.40
14089;BME280;7120;52.890;6.040;2022-08-25T10:19:02;101612.06;;;34.60;25.96
14089;BME280;7120;52.890;6.040;2022-08-25T10:21:29;101599.78;;;34.50;27.08
14089;BME280;7120;52.890;6.040;2022-08-25T10:23:54;101608.06;;;34.45;25.20
14089;BME280;7120;52.890;6.040;2022-08-25T10:29:10;101603.44;;;34.05;25.25
14089;BME280;7120;52.890;6.040;2022-08-25T10:31:56;101603.00;;;34.36;23.88
14089;BME280;7120;52.890;6.040;2022-08-25T10:34:47;101596.59;;;34.48;22.97
14089;BME280;7120;52.890;6.040;2022-08-25T10:37:38;101582.44;;;34.74;23.32
14089;BME280;7120;52.890;6.040;2022-08-25T10:40:25;101583.66;;;34.60;23.63
14089;BME280;7120;52.890;6.040;2022-08-25T10:42:56;101587.06;;;35.09;24.11
14089;BME280;7120;52.890;6.040;2022-08-25T10:45:26;101586.41;;;35.18;23.57
14089;BME280;7120;52.890;6.040;2022-08-25T10:51:40;101579.75;;;34.95;22.10
14089;BME280;7120;52.890;6.040;2022-08-25T11:05:30;101566.22;;;36.33;21.55
14089;BME280;7120;52.890;6.040;2022-08-25T11:10:46;101555.00;;;37.22;22.97
14089;BME280;7120;52.890;6.040;2022-08-25T11:16:09;101531.75;;;35.96;24.62
14089;BME280;7120;52.890;6.040;2022-08-25T11:18:41;101544.00;;;35.71;23.62
14089;BME280;7120;52.890;6.040;2022-08-25T11:21:13;101541.84;;;35.62;22.99
14089;BME280;7120;52.890;6.040;2022-08-25T11:23:49;101545.78;;;36.34;23.39
14089;BME280;7120;52.890;6.040;2022-08-25T11:26:23;101542.13;;;35.90;21.98
14089;BME280;7120;52.890;6.040;2022-08-25T11:29:12;101535.75;;;36.95;21.50
14089;BME280;7120;52.890;6.040;2022-08-25T11:31:43;101537.72;;;37.17;21.49
14089;BME280;7120;52.890;6.040;2022-08-25T11:34:12;101534.84;;;37.07;21.74
14089;BME280;7120;52.890;6.040;2022-08-25T11:36:49;101536.53;;;37.36;21.07
14089;BME280;7120;52.890;6.040;2022-08-25T11:44:57;101525.56;;;37.34;22.39
14089;BME280;7120;52.890;6.040;2022-08-25T11:50:26;101532.13;;;36.07;23.37
14089;BME280;7120;52.890;6.040;2022-08-25T11:52:54;101520.63;;;36.11;23.05
14089;BME280;7120;52.890;6.040;2022-08-25T11:58:27;101529.97;;;37.26;21.94
14089;BME280;7120;52.890;6.040;2022-08-25T12:00:56;101523.78;;;36.56;22.02
14089;BME280;7120;52.890;6.040;2022-08-25T12:08:53;101514.22;;;36.72;22.27
14089;BME280;7120;52.890;6.040;2022-08-25T12:24:43;101508.59;;;38.50;21.43
14089;BME280;7120;52.890;6.040;2022-08-25T12:27:27;101507.91;;;38.64;19.78
14089;BME280;7120;52.890;6.040;2022-08-25T12:41:08;101495.38;;;37.92;21.02
14089;BME280;7120;52.890;6.040;2022-08-25T12:43:39;101481.25;;;37.79;21.16
14089;BME280;7120;52.890;6.040;2022-08-25T12:51:21;101480.47;;;36.71;21.63
14089;BME280;7120;52.890;6.040;2022-08-25T12:53:51;101490.72;;;37.58;20.98
14089;BME280;7120;52.890;6.040;2022-08-25T12:56:37;101480.88;;;37.41;19.92
14089;BME280;7120;52.890;6.040;2022-08-25T12:59:43;101489.28;;;38.36;19.99
14089;BME280;7120;52.890;6.040;2022-08-25T13:05:57;101489.38;;;38.51;19.26
14089;BME280;7120;52.890;6.040;2022-08-25T13:14:22;101465.16;;;38.28;18.77
14089;BME280;7120;52.890;6.040;2022-08-25T13:16:56;101475.03;;;37.99;18.86
14089;BME280;7120;52.890;6.040;2022-08-25T13:19:23;101461.78;;;37.19;19.86
14089;BME280;7120;52.890;6.040;2022-08-25T13:21:50;101460.13;;;37.95;19.00
14089;BME280;7120;52.890;6.040;2022-08-25T13:24:21;101442.44;;;37.14;19.04
14089;BME280;7120;52.890;6.040;2022-08-25T13:26:53;101450.53;;;36.66;20.68
14089;BME280;7120;52.890;6.040;2022-08-25T13:29:30;101448.19;;;36.43;20.98
14089;BME280;7120;52.890;6.040;2022-08-25T13:32:03;101451.16;;;37.20;20.63
14089;BME280;7120;52.890;6.040;2022-08-25T13:34:36;101441.25;;;37.43;18.70
14089;BME280;7120;52.890;6.040;2022-08-25T13:37:10;101450.44;;;37.65;18.99
14089;BME280;7120;52.890;6.040;2022-08-25T13:40:27;101458.81;;;38.14;18.29
14089;BME280;7120;52.890;6.040;2022-08-25T13:43:21;101451.38;;;37.99;17.87
14089;BME280;7120;52.890;6.040;2022-08-25T13:45:47;101451.78;;;38.34;19.88
14089;BME280;7120;52.890;6.040;2022-08-25T13:48:19;101447.25;;;38.00;18.33
14089;BME280;7120;52.890;6.040;2022-08-25T13:51:26;101444.53;;;38.05;18.93
14089;BME280;7120;52.890;6.040;2022-08-25T13:53:59;101450.44;;;37.83;18.36
14089;BME280;7120;52.890;6.040;2022-08-25T13:56:28;101446.13;;;37.70;18.31
14089;BME280;7120;52.890;6.040;2022-08-25T13:58:55;101448.22;;;37.97;18.34
14089;BME280;7120;52.890;6.040;2022-08-25T14:01:28;101443.88;;;37.19;19.70
14089;BME280;7120;52.890;6.040;2022-08-25T14:03:57;101441.38;;;37.48;19.05
14089;BME280;7120;52.890;6.040;2022-08-25T14:06:41;101428.38;;;37.56;21.48
14089;BME280;7120;52.890;6.040;2022-08-25T14:09:13;101438.84;;;37.78;19.40
14089;BME280;7120;52.890;6.040;2022-08-25T14:14:12;101431.63;;;36.91;18.43
14089;BME280;7120;52.890;6.040;2022-08-25T14:17:00;101424.34;;;36.99;18.40
14089;BME280;7120;52.890;6.040;2022-08-25T14:19:27;101418.00;;;36.23;18.65
14089;BME280;7120;52.890;6.040;2022-08-25T14:21:53;101412.72;;;36.13;18.72
14089;BME280;7120;52.890;6.040;2022-08-25T14:24:21;101409.81;;;35.60;20.36
14089;BME280;7120;52.890;6.040;2022-08-25T14:26:47;101423.06;;;35.97;19.59
14089;BME280;7120;52.890;6.040;2022-08-25T14:29:14;101420.28;;;35.63;20.44
14089;BME280;7120;52.890;6.040;2022-08-25T14:31:42;101416.25;;;35.38;21.56
14089;BME280;7120;52.890;6.040;2022-08-25T14:34:22;101408.25;;;35.11;20.49
14089;BME280;7120;52.890;6.040;2022-08-25T14:36:48;101401.69;;;34.89;20.24
14089;BME280;7120;52.890;6.040;2022-08-25T14:39:14;101409.06;;;34.99;21.28
14089;BME280;7120;52.890;6.040;2022-08-25T14:41:41;101406.78;;;34.81;21.96
14089;BME280;7120;52.890;6.040;2022-08-25T14:44:09;101400.22;;;34.46;22.08
14089;BME280;7120;52.890;6.040;2022-08-25T14:46:39;101398.72;;;34.29;22.21
14089;BME280;7120;52.890;6.040;2022-08-25T14:49:07;101397.28;;;34.62;22.41
14089;BME280;7120;52.890;6.040;2022-08-25T14:51:34;101393.41;;;34.44;21.75
14089;BME280;7120;52.890;6.040;2022-08-25T14:54:04;101392.16;;;34.45;22.28
14089;BME280;7120;52.890;6.040;2022-08-25T14:56:32;101387.50;;;34.63;21.99
14089;BME280;7120;52.890;6.040;2022-08-25T14:58:58;101387.59;;;34.34;23.13
14089;BME280;7120;52.890;6.040;2022-08-25T15:01:24;101379.81;;;33.97;22.35